Time,TemperatureF,DewpointF,PressureIn,WindDirection,WindDirectionDegrees,WindSpeedMPH,WindSpeedGustMPH,Humidity,HourlyPrecipIn,Conditions,Clouds,dailyrainin,SoftwareType,DateUTC
2013-05-30 00:00:00,75.0,-99.9,-100.00,SSE,160,12.0,21.0,-999,0.00,,,0.04,,2013-05-30 05:00:00,
2013-05-30 00:32:00,75.0,-99.9,-100.00,SSE,160,12.0,21.0,-999,0.00,,,0.04,,2013-05-30 05:32:00,
2013-05-30 00:43:00,75.0,-99.9,-100.00,SSE,160,12.0,21.0,-999,0.00,,,0.04,,2013-05-30 05:43:00,
2013-05-30 00:53:00,75.0,-99.9,-100.00,SSE,160,12.0,21.0,-999,0.00,,,0.04,,2013-05-30 05:53:00,
2013-05-30 01:00:00,73.0,-99.9,-100.00,SSE,165,8.0,18.0,-999,0.00,,,0.04,,2013-05-30 06:00:00,
2013-05-30 01:32:00,73.0,-99.9,-100.00,SSE,165,8.0,18.0,-999,0.00,,,0.04,,2013-05-30 06:32:00,
2013-05-30 01:42:00,73.0,-99.9,-100.00,SSE,165,8.0,18.0,-999,0.00,,,0.04,,2013-05-30 06:42:00,
2013-05-30 01:52:00,73.0,-99.9,-100.00,SSE,165,8.0,18.0,-999,0.00,,,0.04,,2013-05-30 06:52:00,
2013-05-30 02:00:00,75.0,-99.9,-100.00,SSE,163,11.0,24.0,-999,0.01,,,0.05,,2013-05-30 07:00:00,
2013-05-30 02:32:00,75.0,-99.9,-100.00,SSE,163,11.0,24.0,-999,0.01,,,0.05,,2013-05-30 07:32:00,
2013-05-30 02:42:00,75.0,-99.9,-100.00,SSE,163,11.0,24.0,-999,0.01,,,0.05,,2013-05-30 07:42:00,
2013-05-30 02:52:00,75.0,-99.9,-100.00,SSE,163,11.0,24.0,-999,0.01,,,0.05,,2013-05-30 07:52:00,
2013-05-30 03:00:00,74.0,-99.9,-100.00,South,180,10.0,30.0,-999,0.00,,,0.05,,2013-05-30 08:00:00,
2013-05-30 03:32:00,74.0,-99.9,-100.00,South,180,10.0,30.0,-999,0.00,,,0.05,,2013-05-30 08:32:00,
2013-05-30 03:42:00,74.0,-99.9,-100.00,South,180,10.0,30.0,-999,0.00,,,0.05,,2013-05-30 08:42:00,
2013-05-30 03:53:00,74.0,-99.9,-100.00,South,180,10.0,30.0,-999,0.00,,,0.05,,2013-05-30 08:53:00,
2013-05-30 04:00:00,73.0,-99.9,-100.00,SSW,197,8.0,16.0,-999,0.00,,,0.04,,2013-05-30 09:00:00,
2013-05-30 04:33:00,73.0,-99.9,-100.00,SSW,197,8.0,16.0,-999,0.00,,,0.04,,2013-05-30 09:33:00,
2013-05-30 04:43:00,73.0,-99.9,-100.00,SSW,197,8.0,16.0,-999,0.00,,,0.04,,2013-05-30 09:43:00,
2013-05-30 04:53:00,73.0,-99.9,-100.00,SSW,197,8.0,16.0,-999,0.00,,,0.04,,2013-05-30 09:53:00,
2013-05-30 05:00:00,71.0,-99.9,-100.00,South,171,6.0,12.0,-999,0.00,,,0.04,,2013-05-30 10:00:00,
2013-05-30 05:33:00,71.0,-99.9,-100.00,South,171,6.0,12.0,-999,0.00,,,0.04,,2013-05-30 10:33:00,
2013-05-30 05:42:00,71.0,-99.9,-100.00,South,171,6.0,12.0,-999,0.00,,,0.04,,2013-05-30 10:42:00,
2013-05-30 05:52:00,71.0,-99.9,-100.00,South,171,6.0,12.0,-999,0.00,,,0.04,,2013-05-30 10:52:00,
2013-05-30 06:00:00,69.0,-99.9,-100.00,South,172,8.0,15.0,-999,0.00,,,0.04,,2013-05-30 11:00:00,
2013-05-30 06:32:00,69.0,-99.9,-100.00,South,172,8.0,15.0,-999,0.00,,,0.04,,2013-05-30 11:32:00,
2013-05-30 06:42:00,69.0,-99.9,-100.00,South,172,8.0,15.0,-999,0.00,,,0.04,,2013-05-30 11:42:00,
2013-05-30 06:52:00,69.0,-99.9,-100.00,South,172,8.0,15.0,-999,0.00,,,0.04,,2013-05-30 11:52:00,
2013-05-30 07:00:00,69.0,-99.9,-100.00,South,171,7.0,14.0,-999,0.00,,,0.04,,2013-05-30 12:00:00,
2013-05-30 07:42:00,69.0,-99.9,-100.00,South,171,7.0,14.0,-999,0.00,,,0.04,,2013-05-30 12:42:00,
2013-05-30 07:52:00,69.0,-99.9,-100.00,South,171,7.0,14.0,-999,0.00,,,0.04,,2013-05-30 12:52:00,
2013-05-30 08:00:00,70.0,-99.9,-100.00,South,180,7.0,19.0,-999,0.00,,,0.04,,2013-05-30 13:00:00,
2013-05-30 08:42:00,70.0,-99.9,-100.00,South,180,7.0,19.0,-999,0.00,,,0.04,,2013-05-30 13:42:00,
2013-05-30 08:52:00,70.0,-99.9,-100.00,South,180,7.0,19.0,-999,0.00,,,0.04,,2013-05-30 13:52:00,